Time;durP1;ratioP1;P1;durP2;ratioP2;P2;SDS_P1;SDS_P2;PMS_P1;PMS_P2;Temp;Humidity;BMP_temperature;BMP_pressure;BME280_temperature;BME280_humidity;BME280_pressure;Samples;Min_cycle;Max_cycle;Signal;HPM_P1;HPM_P2
2022/05/17 00:00:05;;;;;;;7.43;2.55;;;;;;;13.30;100.00;99415.75;5082590;28;20388;-78
2022/05/17 00:02:32;;;;;;;5.03;2.58;;;;;;;13.14;100.00;99397.75;5081468;28;20052;-78
2022/05/17 00:04:59;;;;;;;9.68;2.75;;;;;;;13.03;100.00;99393.66;5088104;27;20052;-78
2022/05/17 00:07:26;;;;;;;5.85;2.60;;;;;;;12.97;100.00;99407.25;5079248;28;20250;-78
2022/05/17 00:09:53;;;;;;;5.32;2.60;;;;;;;12.89;100.00;99394.59;5083650;28;20126;-78
2022/05/17 00:12:19;;;;;;;4.72;2.80;;;;;;;12.98;100.00;99408.97;5087516;28;20128;-78
2022/05/17 00:14:46;;;;;;;4.45;2.60;;;;;;;13.01;100.00;99431.25;5088007;28;20499;-78
2022/05/17 00:17:12;;;;;;;8.20;2.78;;;;;;;13.04;100.00;99430.00;5092628;27;20062;-78
2022/05/17 00:19:39;;;;;;;6.35;2.65;;;;;;;12.98;100.00;99437.09;5080132;28;20067;-78
2022/05/17 00:22:07;;;;;;;7.07;2.58;;;;;;;12.87;100.00;99419.34;5086808;28;20463;-78
2022/05/17 00:24:34;;;;;;;5.95;3.70;;;;;;;13.06;100.00;99433.38;5086637;28;20052;-78
2022/05/17 00:27:01;;;;;;;6.53;2.92;;;;;;;12.82;100.00;99421.78;5080897;28;20066;-78
2022/05/17 00:29:27;;;;;;;9.35;2.55;;;;;;;12.83;100.00;99411.75;5088021;28;20052;-78
2022/05/17 00:31:54;;;;;;;4.10;2.42;;;;;;;12.77;100.00;99417.94;5085625;27;20044;-78
2022/05/17 00:34:22;;;;;;;6.95;3.00;;;;;;;12.69;100.00;99411.59;5080998;27;20078;-78
2022/05/17 00:36:48;;;;;;;4.97;2.60;;;;;;;12.87;100.00;99438.44;5078222;28;20147;-78
2022/05/17 00:39:16;;;;;;;9.32;2.60;;;;;;;12.84;100.00;99437.97;5081765;28;20052;-78
2022/05/17 00:41:43;;;;;;;4.43;2.80;;;;;;;12.63;100.00;99401.47;5078161;28;20161;-77
2022/05/17 00:46:59;;;;;;;4.70;2.50;;;;;;;12.56;100.00;99439.53;5081670;28;20055;-78
2022/05/17 00:49:29;;;;;;;6.28;2.53;;;;;;;12.67;100.00;99434.63;5092280;27;20819;-78
2022/05/17 00:51:59;;;;;;;5.53;2.55;;;;;;;12.34;100.00;99408.63;5081719;27;20058;-78
2022/05/17 00:54:27;;;;;;;;;;;;;;;12.54;100.00;99432.59;5084871;28;21844;-77
2022/05/17 00:57:02;;;;;;;6.43;3.17;;;;;;;12.52;100.00;99427.31;5086506;28;19920;-78
2022/05/17 00:59:30;;;;;;;7.25;2.80;;;;;;;12.45;100.00;99393.69;5089963;28;20048;-78
2022/05/17 01:01:56;;;;;;;6.55;2.42;;;;;;;12.45;100.00;99437.31;5082240;28;20048;-78
2022/05/17 01:04:26;;;;;;;6.20;2.38;;;;;;;12.44;100.00;99405.63;5087157;28;20653;-78
2022/05/17 01:06:57;;;;;;;7.93;3.22;;;;;;;12.32;100.00;99418.06;5080372;27;20047;-78
2022/05/17 01:09:24;;;;;;;4.65;2.50;;;;;;;12.36;100.00;99416.63;5080304;28;20044;-78
2022/05/17 01:11:52;;;;;;;10.30;3.00;;;;;;;12.43;100.00;99398.47;5087934;28;20087;-78
2022/05/17 01:17:05;;;;;;;3.40;2.75;;;;;;;12.44;100.00;99423.88;5091958;28;20059;-77
2022/05/17 01:19:31;;;;;;;5.20;2.75;;;;;;;12.45;100.00;99407.34;5080753;28;20385;-78
2022/05/17 01:21:59;;;;;;;7.13;2.78;;;;;;;12.42;100.00;99426.81;5080754;27;20056;-78
2022/05/17 01:24:26;;;;;;;6.22;3.22;;;;;;;12.53;100.00;99420.00;5086463;27;20823;-78
2022/05/17 01:26:57;;;;;;;10.57;3.28;;;;;;;12.37;100.00;99416.47;5094193;28;20236;-78
2022/05/17 01:29:24;;;;;;;4.70;2.88;;;;;;;12.26;100.00;99405.19;5094106;28;20040;-78
2022/05/17 01:31:51;;;;;;;5.53;3.17;;;;;;;12.24;100.00;99410.84;5093119;28;20048;-78
2022/05/17 01:34:18;;;;;;;3.20;2.42;;;;;;;12.27;100.00;99405.00;5093037;28;20384;-78
2022/05/17 01:36:44;;;;;;;6.20;2.85;;;;;;;12.06;100.00;99419.41;5093681;28;20047;-78
2022/05/17 01:39:12;;;;;;;5.55;2.88;;;;;;;12.05;100.00;99395.91;5103199;28;20179;-78
2022/05/17 01:41:39;;;;;;;6.30;2.67;;;;;;;12.05;100.00;99414.97;5110917;28;20047;-78
2022/05/17 01:44:05;;;;;;;3.10;2.28;;;;;;;11.93;100.00;99400.97;5101870;28;20052;-78
2022/05/17 01:46:32;;;;;;;8.55;2.55;;;;;;;12.16;100.00;99428.16;5104457;28;20040;-78
2022/05/17 01:48:58;;;;;;;5.65;2.65;;;;;;;12.06;100.00;99424.00;5111906;28;20490;-78
2022/05/17 01:51:25;;;;;;;6.30;3.13;;;;;;;12.06;100.00;99416.69;5103468;28;20043;-78
2022/05/17 01:53:52;;;;;;;5.25;2.60;;;;;;;12.11;100.00;99433.31;5103732;28;20048;-78
2022/05/17 01:56:20;;;;;;;5.15;2.67;;;;;;;12.02;100.00;99412.63;5103840;28;20054;-78
2022/05/17 01:58:46;;;;;;;9.10;2.88;;;;;;;12.12;100.00;99425.97;5111827;28;20047;-78
2022/05/17 02:01:13;;;;;;;7.70;2.40;;;;;;;11.93;100.00;99416.50;5110677;28;20079;-78
2022/05/17 02:03:40;;;;;;;12.07;2.78;;;;;;;11.85;100.00;99423.69;5109733;28;20059;-78
2022/05/17 02:06:07;;;;;;;7.55;3.00;;;;;;;11.83;100.00;99417.59;5110118;28;20150;-78
2022/05/17 02:08:33;;;;;;;6.95;2.97;;;;;;;11.82;100.00;99404.16;5110034;28;20042;-78
2022/05/17 02:11:00;;;;;;;5.78;3.25;;;;;;;11.76;100.00;99410.34;5103719;28;20048;-78
2022/05/17 02:13:28;;;;;;;4.10;2.92;;;;;;;11.87;100.00;99418.88;5108521;28;20047;-78
2022/05/17 02:15:55;;;;;;;5.32;3.17;;;;;;;11.68;100.00;99411.25;5096824;28;20039;-78
2022/05/17 02:18:22;;;;;;;4.45;2.83;;;;;;;11.59;100.00;99423.28;5111540;28;20043;-78
2022/05/17 02:20:48;;;;;;;5.05;3.08;;;;;;;11.54;100.00;99426.56;5110612;28;20043;-78
2022/05/17 02:23:15;;;;;;;7.82;2.85;;;;;;;11.43;100.00;99402.50;5110291;28;20056;-78
2022/05/17 02:25:42;;;;;;;4.30;2.90;;;;;;;11.59;100.00;99415.09;5103445;28;20514;-78
2022/05/17 02:28:10;;;;;;;6.15;3.28;;;;;;;11.30;100.00;99400.41;5115372;27;20052;-78
2022/05/17 02:30:40;;;;;;;4.50;3.00;;;;;;;11.39;100.00;99422.97;5107539;28;20043;-78
2022/05/17 02:33:07;;;;;;;6.10;3.20;;;;;;;11.44;100.00;99415.94;5110808;28;20104;-78
2022/05/17 02:35:34;;;;;;;4.90;3.10;;;;;;;11.41;100.00;99405.41;5107832;28;20056;-78
2022/05/17 02:38:00;;;;;;;5.72;3.08;;;;;;;11.46;100.00;99418.47;5111200;28;20059;-78
2022/05/17 02:40:27;;;;;;;5.82;2.58;;;;;;;11.59;100.00;99437.75;5108772;28;20399;-78
2022/05/17 02:42:53;;;;;;;5.13;3.20;;;;;;;11.40;100.00;99419.22;5107459;28;20052;-78
2022/05/17 02:45:20;;;;;;;5.68;3.10;;;;;;;11.27;100.00;99417.94;5106133;28;20495;-78
2022/05/17 02:47:48;;;;;;;5.00;3.00;;;;;;;11.20;100.00;99432.47;5111290;28;20055;-78
2022/05/17 02:50:15;;;;;;;3.38;2.50;;;;;;;11.16;100.00;99430.09;5098880;28;20047;-78
2022/05/17 02:52:42;;;;;;;6.28;2.72;;;;;;;11.38;100.00;99449.34;5109360;28;20047;-78
2022/05/17 02:55:09;;;;;;;5.45;3.47;;;;;;;11.25;100.00;99439.06;5113025;28;20498;-78
2022/05/17 02:57:36;;;;;;;8.20;3.00;;;;;;;11.41;100.00;99462.59;5112380;28;20059;-78
2022/05/17 03:00:05;;;;;;;5.03;2.80;;;;;;;11.27;100.00;99460.66;5104845;28;20048;-77
2022/05/17 03:02:31;;;;;;;6.72;2.72;;;;;;;11.23;100.00;99453.88;5112095;28;20050;-78
2022/05/17 03:04:59;;;;;;;4.95;3.30;;;;;;;11.20;100.00;99468.69;5103004;28;20055;-78
2022/05/17 03:07:26;;;;;;;5.20;2.78;;;;;;;10.91;100.00;99434.03;5092635;28;20056;-78
2022/05/17 03:09:52;;;;;;;5.88;3.05;;;;;;;11.01;100.00;99450.13;5093466;28;20054;-78
2022/05/17 03:12:19;;;;;;;5.60;2.70;;;;;;;10.99;100.00;99458.47;5112312;28;20048;-78
2022/05/17 03:14:45;;;;;;;6.10;3.15;;;;;;;11.02;100.00;99458.13;5112838;28;20047;-78
2022/05/17 03:17:13;;;;;;;6.30;2.92;;;;;;;10.80;100.00;99433.41;5112433;28;20035;-78
2022/05/17 03:19:40;;;;;;;4.35;2.85;;;;;;;10.89;100.00;99469.56;5108063;28;20056;-78
2022/05/17 03:22:08;;;;;;;5.90;3.20;;;;;;;10.83;100.00;99459.41;5111236;28;20479;-78
2022/05/17 03:24:35;;;;;;;4.63;2.53;;;;;;;10.80;100.00;99479.66;5105650;28;20043;-78
2022/05/17 03:27:02;;;;;;;7.20;3.30;;;;;;;10.81;100.00;99469.66;5108858;28;20050;-78
2022/05/17 03:29:28;;;;;;;4.10;2.88;;;;;;;10.81;100.00;99464.19;5110947;28;20058;-78
2022/05/17 03:31:55;;;;;;;3.83;2.78;;;;;;;10.88;100.00;99473.31;5099336;28;20071;-78
2022/05/17 03:34:22;;;;;;;3.67;2.80;;;;;;;10.68;100.00;99458.50;5108780;28;20036;-78
2022/05/17 03:36:48;;;;;;;4.35;2.80;;;;;;;10.59;100.00;99455.81;5104183;28;20509;-78
2022/05/17 03:39:16;;;;;;;7.10;3.15;;;;;;;10.64;100.00;99455.28;5109231;28;20134;-78
2022/05/17 03:41:43;;;;;;;13.15;3.25;;;;;;;10.78;100.00;99479.00;5109721;28;20050;-78
2022/05/17 03:44:10;;;;;;;4.55;2.88;;;;;;;10.72;100.00;99485.16;5108415;28;20055;-78
2022/05/17 03:46:38;;;;;;;4.13;2.95;;;;;;;10.61;100.00;99469.22;5108466;28;20126;-78
2022/05/17 03:49:05;;;;;;;5.80;2.60;;;;;;;10.80;100.00;99503.28;5109108;28;20048;-78
2022/05/17 03:51:31;;;;;;;4.30;3.13;;;;;;;10.74;100.00;99474.94;5105234;28;20047;-78
2022/05/17 03:53:58;;;;;;;4.05;2.92;;;;;;;10.59;100.00;99469.41;5109931;28;20487;-78
2022/05/17 03:56:25;;;;;;;4.15;3.00;;;;;;;10.65;100.00;99462.41;5103406;28;20051;-78
2022/05/17 03:58:52;;;;;;;4.93;2.50;;;;;;;10.86;100.00;99497.13;5109648;28;20403;-78
2022/05/17 04:01:18;;;;;;;8.60;3.33;;;;;;;10.79;100.00;99493.44;5108296;28;20054;-78
2022/05/17 04:03:45;;;;;;;7.47;3.30;;;;;;;10.72;100.00;99485.16;5111817;28;20054;-78
2022/05/17 04:06:12;;;;;;;4.82;3.28;;;;;;;10.76;100.00;99480.19;5115453;27;20454;-78
2022/05/17 04:08:40;;;;;;;4.03;2.90;;;;;;;10.62;100.00;99473.66;5113088;28;20075;-78
2022/05/17 04:11:07;;;;;;;5.88;2.80;;;;;;;10.66;100.00;99480.44;5116529;28;20057;-78
2022/05/17 04:13:36;;;;;;;5.32;3.28;;;;;;;10.94;100.00;99508.00;5111262;28;20047;-78
2022/05/17 04:16:03;;;;;;;5.22;2.95;;;;;;;10.94;100.00;99507.13;5112954;28;20055;-78
2022/05/17 04:18:30;;;;;;;8.15;2.75;;;;;;;10.88;100.00;99510.56;5108415;28;20054;-78
2022/05/17 04:21:01;;;;;;;4.93;3.10;;;;;;;10.68;100.00;99486.53;5105993;28;20052;-78
2022/05/17 04:26:46;;;;;;;6.22;3.30;;;;;;;10.78;100.00;99495.31;5029074;28;20185;-78
2022/05/17 04:29:14;;;;;;;5.82;3.15;;;;;;;10.94;100.00;99527.03;5108551;28;20552;-78
2022/05/17 04:31:41;;;;;;;4.40;3.28;;;;;;;10.86;100.00;99507.19;5106337;28;20043;-78
2022/05/17 04:34:07;;;;;;;6.97;2.88;;;;;;;10.97;100.00;99521.22;5111981;28;20056;-78
2022/05/17 04:36:34;;;;;;;6.90;3.45;;;;;;;11.05;100.00;99523.06;5111756;28;20479;-78
2022/05/17 04:39:01;;;;;;;6.20;3.53;;;;;;;11.15;100.00;99522.81;5102201;27;20499;-78
2022/05/17 04:41:28;;;;;;;6.82;3.28;;;;;;;11.03;100.00;99502.47;5102388;28;20052;-78
2022/05/17 04:43:55;;;;;;;5.13;3.55;;;;;;;11.22;100.00;99515.63;5108599;28;20142;-78
2022/05/17 04:46:23;;;;;;;6.63;3.78;;;;;;;11.39;100.00;99537.28;5112785;28;20051;-78
2022/05/17 04:48:50;;;;;;;5.10;3.33;;;;;;;11.40;100.00;99522.66;5106162;28;20078;-78
2022/05/17 04:51:17;;;;;;;6.53;4.22;;;;;;;11.62;100.00;99537.28;5107797;28;20445;-78
2022/05/17 04:53:44;;;;;;;6.68;3.33;;;;;;;11.55;100.00;99511.78;5111161;28;20108;-78
2022/05/17 04:56:12;;;;;;;5.10;2.83;;;;;;;11.74;100.00;99529.50;5108854;28;20058;-78
2022/05/17 04:58:39;;;;;;;6.60;3.30;;;;;;;11.87;100.00;99533.31;5104397;28;20432;-78
2022/05/17 05:01:06;;;;;;;6.70;3.90;;;;;;;11.86;100.00;99534.34;5103673;28;20110;-78
2022/05/17 05:03:34;;;;;;;7.18;4.47;;;;;;;12.06;100.00;99549.34;5111009;28;20118;-78
2022/05/17 05:06:01;;;;;;;8.18;5.45;;;;;;;12.46;100.00;99548.06;5113355;28;20127;-78
2022/05/17 05:08:27;;;;;;;10.65;4.68;;;;;;;12.94;100.00;99531.28;5110412;28;20047;-78
2022/05/17 05:10:54;;;;;;;6.70;4.32;;;;;;;13.50;100.00;99535.28;5109421;28;20047;-78
2022/05/17 05:13:23;;;;;;;8.20;4.13;;;;;;;14.13;100.00;99540.88;5109153;28;20047;-78
2022/05/17 05:15:50;;;;;;;11.38;4.13;;;;;;;14.71;100.00;99537.06;5111851;28;20043;-78
2022/05/17 05:18:17;;;;;;;6.93;4.10;;;;;;;15.06;100.00;99524.16;5106244;28;20438;-78
2022/05/17 05:20:45;;;;;;;6.53;3.75;;;;;;;15.44;100.00;99522.78;5113638;28;20410;-78
2022/05/17 05:23:12;;;;;;;4.55;3.50;;;;;;;15.70;100.00;99531.06;5103627;28;20051;-78
2022/05/17 05:25:39;;;;;;;7.57;3.65;;;;;;;16.23;100.00;99532.97;5094199;28;20491;-78
2022/05/17 05:28:07;;;;;;;10.52;3.85;;;;;;;16.37;100.00;99522.81;5091872;28;20423;-79
2022/05/17 05:30:34;;;;;;;4.28;3.13;;;;;;;16.52;100.00;99540.94;5106544;28;20446;-78
2022/05/17 05:33:00;;;;;;;6.93;3.15;;;;;;;16.42;100.00;99534.00;5103478;28;20076;-78
2022/05/17 05:35:28;;;;;;;4.85;3.20;;;;;;;16.74;100.00;99519.53;5111897;28;20479;-78
2022/05/17 05:37:56;;;;;;;4.57;2.65;;;;;;;16.89;100.00;99535.78;5111086;28;20048;-78
2022/05/17 05:40:23;;;;;;;7.07;3.45;;;;;;;17.23;100.00;99536.47;5111814;27;20054;-79
2022/05/17 05:42:50;;;;;;;5.63;3.47;;;;;;;17.39;100.00;99546.97;5107686;28;20407;-79
2022/05/17 05:45:19;;;;;;;6.85;3.47;;;;;;;17.67;99.42;99542.97;5109624;28;20048;-79
2022/05/17 05:47:46;;;;;;;6.20;3.50;;;;;;;17.59;99.71;99537.75;5105031;28;20063;-79
2022/05/17 05:50:12;;;;;;;7.30;3.53;;;;;;;17.85;98.96;99533.97;5096057;28;20035;-79
2022/05/17 05:52:39;;;;;;;3.33;2.85;;;;;;;18.08;98.22;99544.41;5098549;28;20056;-79
2022/05/17 05:55:11;;;;;;;5.03;2.95;;;;;;;18.28;97.65;99524.13;5109494;28;20135;-79
2022/05/17 05:57:37;;;;;;;5.72;2.97;;;;;;;18.46;93.66;99543.41;5110282;28;20152;-79
2022/05/17 06:00:06;;;;;;;8.25;2.75;;;;;;;18.36;94.17;99534.81;5111256;28;20138;-79
2022/05/17 06:02:33;;;;;;;11.43;3.10;;;;;;;18.74;93.70;99548.41;5103898;28;20099;-79
2022/05/17 06:04:59;;;;;;;6.80;3.55;;;;;;;18.89;90.42;99552.69;5110097;28;20407;-79
2022/05/17 06:07:25;;;;;;;8.25;3.25;;;;;;;19.02;87.97;99540.69;5112171;28;20051;-79
2022/05/17 06:09:52;;;;;;;5.80;3.38;;;;;;;19.03;87.90;99534.09;5111960;28;20054;-79
2022/05/17 06:12:20;;;;;;;4.55;2.47;;;;;;;19.35;89.16;99554.03;5110158;27;20055;-78
2022/05/17 06:14:47;;;;;;;6.15;2.80;;;;;;;19.34;87.19;99533.03;5103645;28;20478;-79
2022/05/17 06:17:13;;;;;;;8.07;3.28;;;;;;;19.19;88.83;99547.22;5096723;28;20449;-79
2022/05/17 06:19:40;;;;;;;12.25;3.75;;;;;;;19.45;87.42;99557.06;5111611;28;20134;-78
2022/05/17 06:22:06;;;;;;;9.10;3.67;;;;;;;19.46;87.63;99557.91;5103388;28;20044;-78
2022/05/17 06:24:33;;;;;;;10.60;3.90;;;;;;;19.48;87.40;99558.53;5105381;28;20055;-78
2022/05/17 06:27:00;;;;;;;8.30;3.95;;;;;;;19.46;84.62;99527.56;5103959;28;20050;-78
2022/05/17 06:29:28;;;;;;;7.75;4.13;;;;;;;19.30;87.88;99556.66;5107363;28;20051;-79
2022/05/17 06:31:54;;;;;;;12.98;4.00;;;;;;;19.17;88.74;99545.81;5108843;28;20056;-78
2022/05/17 06:34:21;;;;;;;11.93;4.07;;;;;;;19.40;88.45;99556.91;5101948;27;20681;-78
2022/05/17 06:36:48;;;;;;;11.85;3.17;;;;;;;19.35;87.94;99561.47;5104532;28;20112;-78
2022/05/17 06:39:14;;;;;;;9.88;3.53;;;;;;;19.28;88.25;99550.50;5109415;28;20047;-78
2022/05/17 06:41:41;;;;;;;8.82;3.30;;;;;;;19.62;86.46;99556.41;5111011;28;20051;-78
2022/05/17 06:44:07;;;;;;;12.00;4.10;;;;;;;19.90;85.40;99544.78;5101165;28;20043;-78
2022/05/17 06:46:35;;;;;;;14.57;3.92;;;;;;;19.75;84.62;99549.84;5103479;28;20047;-78
2022/05/17 06:49:02;;;;;;;11.32;3.60;;;;;;;20.19;82.92;99564.25;5107484;28;20499;-79
2022/05/17 06:51:29;;;;;;;6.15;3.88;;;;;;;19.86;83.24;99551.84;5108204;28;20043;-78
2022/05/17 06:53:55;;;;;;;7.30;3.25;;;;;;;19.86;84.87;99542.69;5108850;28;20479;-78
2022/05/17 06:56:22;;;;;;;9.20;3.75;;;;;;;20.50;81.82;99553.91;5106843;28;20054;-78
2022/05/17 06:58:48;;;;;;;9.77;3.80;;;;;;;20.94;78.99;99559.06;5109632;28;20043;-78
2022/05/17 07:01:15;;;;;;;8.60;4.55;;;;;;;21.02;78.75;99545.72;5103855;28;20047;-78
2022/05/17 07:03:43;;;;;;;7.63;3.80;;;;;;;21.16;78.58;99548.19;5107394;28;20058;-78
2022/05/17 07:06:10;;;;;;;9.52;3.53;;;;;;;21.07;77.05;99569.03;5105053;28;20098;-79
2022/05/17 07:08:36;;;;;;;9.40;4.05;;;;;;;20.78;79.01;99549.63;5111032;28;20047;-78
2022/05/17 07:13:47;;;;;;;5.95;3.85;;;;;;;21.20;77.01;99550.22;5100686;28;20144;-78
2022/05/17 07:16:14;;;;;;;8.80;4.13;;;;;;;21.44;74.01;99544.59;5104820;28;20548;-78
2022/05/17 07:18:42;;;;;;;7.93;2.95;;;;;;;21.38;73.80;99560.25;5107927;28;20054;-78
2022/05/17 07:21:11;;;;;;;11.52;3.15;;;;;;;21.21;74.21;99543.63;5102398;28;20179;-78
2022/05/17 07:23:38;;;;;;;9.57;3.97;;;;;;;21.87;74.77;99556.19;5107824;28;20050;-78
2022/05/17 07:26:05;;;;;;;10.60;3.70;;;;;;;21.98;74.16;99535.06;5107206;28;20043;-78
2022/05/17 07:28:32;;;;;;;11.73;3.40;;;;;;;22.00;72.94;99564.19;5109408;28;20040;-78
2022/05/17 07:30:59;;;;;;;9.95;4.45;;;;;;;21.78;71.88;99557.69;5109333;28;20475;-78
2022/05/17 07:33:25;;;;;;;8.25;3.60;;;;;;;22.01;74.02;99537.31;5104398;28;20070;-78
2022/05/17 07:35:53;;;;;;;8.80;3.70;;;;;;;21.40;73.75;99546.19;5104789;28;20537;-78
2022/05/17 07:38:21;;;;;;;9.50;3.47;;;;;;;21.92;74.70;99548.84;5107481;28;20044;-78
2022/05/17 07:40:49;;;;;;;7.30;4.20;;;;;;;21.97;73.91;99556.38;5110441;28;20061;-78
2022/05/17 07:43:16;;;;;;;6.50;3.40;;;;;;;21.45;74.96;99537.97;5102700;28;20054;-78
2022/05/17 07:45:44;;;;;;;6.78;3.40;;;;;;;21.72;74.19;99549.31;5102950;28;20051;-78
2022/05/17 07:48:11;;;;;;;5.30;3.20;;;;;;;21.96;72.24;99540.84;5106192;28;20441;-78
2022/05/17 07:50:38;;;;;;;9.23;3.47;;;;;;;22.31;70.69;99527.84;5105160;28;20047;-78
2022/05/17 07:53:06;;;;;;;5.85;3.58;;;;;;;22.44;71.71;99535.84;5104244;28;20056;-78
2022/05/17 07:55:35;;;;;;;6.05;2.80;;;;;;;22.39;70.80;99535.78;5109680;28;20047;-78
2022/05/17 07:58:02;;;;;;;10.18;3.72;;;;;;;21.96;70.14;99560.22;5106310;28;20047;-78
2022/05/17 08:00:28;;;;;;;6.15;3.78;;;;;;;21.82;72.07;99529.28;5101464;28;20050;-78
2022/05/17 08:02:56;;;;;;;6.70;3.08;;;;;;;22.33;70.65;99540.38;5106697;28;20048;-78
2022/05/17 08:05:22;;;;;;;6.07;3.30;;;;;;;22.60;66.14;99531.38;5105139;28;20096;-78
2022/05/17 08:07:49;;;;;;;4.57;2.83;;;;;;;22.80;64.63;99544.66;5107669;28;20467;-78
2022/05/17 08:10:16;;;;;;;8.32;2.75;;;;;;;22.95;64.07;99550.41;5107166;28;20100;-78
2022/05/17 08:12:44;;;;;;;8.27;2.95;;;;;;;22.74;68.84;99549.28;5104811;28;20514;-78
2022/05/17 08:15:11;;;;;;;6.32;3.38;;;;;;;22.92;67.03;99547.31;5109299;28;20043;-78
2022/05/17 08:17:38;;;;;;;5.13;2.95;;;;;;;22.87;67.63;99544.47;5113432;28;20487;-78
2022/05/17 08:20:07;;;;;;;8.30;3.30;;;;;;;22.64;65.43;99529.75;5101642;28;20048;-78
2022/05/17 08:22:34;;;;;;;6.55;3.22;;;;;;;22.85;62.91;99532.81;5093482;28;20048;-78
2022/05/17 08:27:47;;;;;;;6.63;2.90;;;;;;;23.00;60.68;99546.03;5102828;28;20468;-78
2022/05/17 08:30:18;;;;;;;4.90;2.47;;;;;;;23.30;63.16;99546.41;5105463;28;20074;-78
2022/05/17 08:35:30;;;;;;;3.85;2.35;;;;;;;23.59;56.86;99546.19;5105961;28;20051;-78
2022/05/17 08:37:57;;;;;;;10.05;2.60;;;;;;;23.14;56.70;99544.59;5103636;28;20140;-78
2022/05/17 08:40:24;;;;;;;6.68;2.08;;;;;;;23.00;55.12;99534.94;5106990;28;20410;-78
2022/05/17 08:43:08;;;;;;;6.47;1.80;;;;;;;23.10;54.74;99533.16;5099281;28;20399;-78
2022/05/17 08:45:44;;;;;;;5.63;2.25;;;;;;;22.95;56.55;99531.00;5108694;28;20046;-78
2022/05/17 08:48:16;;;;;;;12.35;2.10;;;;;;;23.25;56.61;99540.81;5105155;28;20137;-78
2022/05/17 08:50:47;;;;;;;7.00;2.30;;;;;;;23.20;56.69;99526.91;5105701;28;20104;-78
2022/05/17 08:53:18;;;;;;;4.10;1.80;;;;;;;23.11;53.03;99532.06;5100874;28;20093;-78
2022/05/17 08:55:46;;;;;;;12.23;2.60;;;;;;;23.42;52.04;99534.34;5111825;28;20258;-78
2022/05/17 08:58:20;;;;;;;6.40;1.80;;;;;;;23.26;54.02;99519.47;5096595;28;20055;-78
2022/05/17 09:00:49;;;;;;;5.05;1.48;;;;;;;23.60;52.24;99533.16;5107215;28;20067;-78
2022/05/17 09:03:32;;;;;;;5.17;1.40;;;;;;;23.10;51.28;99533.16;5104528;28;20132;-78
2022/05/17 09:06:08;;;;;;;8.63;2.30;;;;;;;23.36;51.59;99544.53;5107260;28;20044;-79
2022/05/17 09:08:47;;;;;;;9.13;2.03;;;;;;;23.04;53.56;99514.75;5103429;28;20040;-78
2022/05/17 09:11:21;;;;;;;6.15;2.15;;;;;;;23.09;51.75;99512.06;5108152;28;20055;-78
2022/05/17 09:13:54;;;;;;;3.83;1.70;;;;;;;23.59;52.49;99532.31;5110330;28;20059;-78
2022/05/17 09:16:23;;;;;;;5.90;2.00;;;;;;;23.63;50.86;99510.44;5093912;28;20056;-79
2022/05/17 09:18:50;;;;;;;6.57;1.98;;;;;;;23.62;50.98;99523.47;5109713;28;20055;-78
2022/05/17 09:21:29;;;;;;;9.02;2.25;;;;;;;23.48;51.48;99536.06;5106802;28;20071;-79
2022/05/17 09:23:58;;;;;;;8.67;2.40;;;;;;;23.84;52.40;99522.56;5109952;28;20048;-78
2022/05/17 09:26:26;;;;;;;9.35;2.33;;;;;;;23.78;51.39;99507.78;5102966;28;20086;-78
2022/05/17 09:28:58;;;;;;;3.75;2.03;;;;;;;23.50;51.82;99531.09;5110470;28;20062;-79
2022/05/17 09:31:31;;;;;;;3.70;2.25;;;;;;;23.62;53.59;99500.41;5105956;28;20044;-78
2022/05/17 09:34:00;;;;;;;5.03;2.00;;;;;;;23.80;51.88;99504.75;5094459;28;20039;-78
2022/05/17 09:36:33;;;;;;;7.07;1.90;;;;;;;23.79;52.55;99492.00;5112135;28;20134;-79
2022/05/17 09:39:01;;;;;;;6.85;2.13;;;;;;;24.02;49.25;99515.81;5112175;28;20059;-78
2022/05/17 09:41:34;;;;;;;4.70;1.77;;;;;;;23.69;49.19;99501.88;5109529;28;20126;-79
2022/05/17 09:44:05;;;;;;;4.20;1.70;;;;;;;23.62;51.37;99537.34;5109060;28;20475;-78
2022/05/17 09:46:34;;;;;;;8.85;1.90;;;;;;;23.72;51.14;99527.44;5111915;28;20077;-79
2022/05/17 09:54:41;;;;;;;5.85;1.88;;;;;;;23.37;49.60;99510.16;5111166;28;20046;-79
2022/05/17 09:57:17;;;;;;;5.95;2.15;;;;;;;23.66;50.19;99512.66;5103937;28;20139;-79
2022/05/17 09:59:47;;;;;;;14.35;2.50;;;;;;;23.72;50.12;99496.91;5103672;28;20067;-79
2022/05/17 10:02:39;;;;;;;7.97;2.00;;;;;;;23.67;50.92;99504.09;5110870;28;20054;-79
2022/05/17 10:05:20;;;;;;;5.97;2.20;;;;;;;23.91;48.64;99522.34;5111844;28;20146;-79
2022/05/17 10:07:52;;;;;;;6.28;1.90;;;;;;;23.93;48.93;99511.84;5110502;28;20055;-79
2022/05/17 10:10:37;;;;;;;4.38;2.05;;;;;;;24.29;48.33;99512.94;5103285;28;20479;-79
2022/05/17 10:13:13;;;;;;;8.23;2.08;;;;;;;24.79;48.49;99516.31;5110603;28;20411;-79
2022/05/17 10:15:44;;;;;;;5.43;1.98;;;;;;;24.44;46.97;99501.09;5106823;28;20062;-80
2022/05/17 10:18:31;;;;;;;7.65;1.95;;;;;;;24.41;46.65;99492.47;5098148;28;20048;-79
2022/05/17 10:21:03;;;;;;;8.45;2.22;;;;;;;24.74;47.30;99511.56;5110856;28;20048;-78
2022/05/17 10:23:39;;;;;;;7.93;2.15;;;;;;;24.91;45.52;99514.16;5110583;28;20040;-79
2022/05/17 10:26:11;;;;;;;4.38;1.58;;;;;;;24.67;45.76;99491.53;5108018;28;20418;-78
2022/05/17 10:28:43;;;;;;;12.23;1.90;;;;;;;24.02;47.87;99490.81;5111423;28;20051;-79
2022/05/17 10:31:21;;;;;;;8.80;1.95;;;;;;;24.28;49.04;99494.59;5113327;28;20503;-78
2022/05/17 10:34:00;;;;;;;8.88;2.05;;;;;;;23.99;48.49;99486.63;5096101;28;20051;-79
2022/05/17 10:36:31;;;;;;;14.45;3.63;;;;;;;24.06;48.85;99489.19;5090612;28;20056;-79
2022/05/17 10:39:05;;;;;;;10.85;2.75;;;;;;;24.17;48.01;99485.34;5091064;28;20041;-79
2022/05/17 10:41:34;;;;;;;3.38;1.40;;;;;;;24.59;49.33;99513.44;5090186;28;20142;-79
2022/05/17 10:44:01;;;;;;;4.75;2.47;;;;;;;24.46;47.74;99495.28;5107668;28;20047;-79
2022/05/17 10:46:32;;;;;;;11.93;1.98;;;;;;;24.47;46.73;99483.88;5107779;28;20052;-79
2022/05/17 10:49:11;;;;;;;3.60;1.77;;;;;;;24.41;47.25;99493.31;5110108;28;20059;-79
2022/05/17 10:51:47;;;;;;;4.13;1.70;;;;;;;25.02;45.34;99490.03;5090381;28;20278;-79
2022/05/17 10:54:21;;;;;;;3.63;1.50;;;;;;;24.89;44.72;99471.06;5107152;28;20637;-79
2022/05/17 10:56:57;;;;;;;2.92;1.63;;;;;;;25.30;46.23;99484.28;5111397;28;20058;-80
2022/05/17 10:59:32;;;;;;;5.55;1.45;;;;;;;25.32;44.12;99459.78;5106335;28;20048;-79
2022/05/17 11:02:14;;;;;;;4.90;1.60;;;;;;;25.51;42.99;99494.34;5107756;28;20055;-79
2022/05/17 11:05:07;;;;;;;4.75;1.73;;;;;;;25.00;44.63;99483.06;5102797;28;20051;-79
2022/05/17 11:07:57;;;;;;;8.30;2.45;;;;;;;24.76;45.20;99477.13;5104599;28;20039;-79
2022/05/17 11:10:32;;;;;;;4.60;1.88;;;;;;;25.07;43.86;99475.28;5103837;28;20483;-79
2022/05/17 11:13:12;;;;;;;3.05;1.30;;;;;;;24.94;45.48;99462.72;5108836;28;20058;-79
2022/05/17 11:15:45;;;;;;;4.85;1.60;;;;;;;24.94;43.38;99479.41;5109675;28;20061;-79
2022/05/17 11:18:21;;;;;;;2.63;1.00;;;;;;;25.22;43.00;99475.34;5110753;28;20055;-79
2022/05/17 11:20:53;;;;;;;5.03;1.20;;;;;;;25.04;43.74;99450.81;5110633;28;20406;-79
2022/05/17 11:23:38;;;;;;;7.10;1.52;;;;;;;25.75;44.05;99457.63;5109415;28;20050;-79
2022/05/17 11:26:30;;;;;;;3.45;1.20;;;;;;;25.86;41.95;99455.66;5109809;28;20522;-79
2022/05/17 11:29:24;;;;;;;4.90;1.35;;;;;;;26.11;41.33;99454.84;5107156;28;20055;-79
2022/05/17 11:31:56;;;;;;;3.53;1.15;;;;;;;26.22;40.73;99436.16;5110270;28;20047;-79
2022/05/17 11:34:33;;;;;;;2.70;1.15;;;;;;;26.40;41.26;99448.66;5093433;28;20045;-79
2022/05/17 11:37:02;;;;;;;4.97;1.30;;;;;;;26.30;39.43;99424.41;5089633;28;20060;-80
2022/05/17 11:39:49;;;;;;;7.90;1.42;;;;;;;26.48;39.86;99423.81;5090349;28;20058;-80
2022/05/17 11:42:29;;;;;;;5.60;2.03;;;;;;;26.87;38.39;99444.59;5094631;28;20055;-79
2022/05/17 11:44:57;;;;;;;2.67;1.17;;;;;;;26.35;39.18;99429.16;5110201;28;20422;-79
2022/05/17 11:47:31;;;;;;;9.10;1.20;;;;;;;26.09;39.23;99415.28;5110312;28;20047;-80
2022/05/17 11:50:22;;;;;;;4.05;1.50;;;;;;;26.46;39.22;99436.38;5105960;28;20063;-79
2022/05/17 11:52:55;;;;;;;1.65;1.10;;;;;;;26.54;39.18;99432.16;5096508;28;20056;-79
2022/05/17 11:55:28;;;;;;;3.00;1.20;;;;;;;25.92;39.78;99418.34;5110346;28;20561;-79
2022/05/17 11:57:59;;;;;;;3.58;1.25;;;;;;;26.72;39.13;99436.31;5110045;28;20510;-79
2022/05/17 12:00:43;;;;;;;3.05;1.20;;;;;;;26.07;38.91;99423.91;5099692;28;20493;-79